Time;durP1;ratioP1;P1;durP2;ratioP2;P2;SDS_P1;SDS_P2;PMS_P1;PMS_P2;Temp;Humidity;BMP_temperature;BMP_pressure;BME280_temperature;BME280_humidity;BME280_pressure;Samples;Min_cycle;Max_cycle;Signal;HPM_P1;HPM_P2
2023/09/16 00:00:24;;;;;;;9.23;5.90;;;;;;;25.50;62.33;101265.63;5002022;28;20408;-61
2023/09/16 00:02:51;;;;;;;7.07;6.00;;;;;;;25.51;62.26;101261.03;5005888;28;20049;-61
2023/09/16 00:05:19;;;;;;;7.00;5.40;;;;;;;25.52;62.09;101270.88;5003204;28;20064;-61
2023/09/16 00:07:46;;;;;;;6.25;5.65;;;;;;;25.51;62.14;101261.03;5002215;28;20053;-61
2023/09/16 00:10:14;;;;;;;6.97;5.65;;;;;;;25.50;62.29;101262.91;5005038;28;20046;-59
2023/09/16 00:12:42;;;;;;;7.57;6.00;;;;;;;25.51;61.92;101270.03;5013243;28;20057;-59
2023/09/16 00:15:09;;;;;;;6.57;5.57;;;;;;;25.51;62.17;101264.59;5003519;28;20038;-59
2023/09/16 00:17:37;;;;;;;6.78;6.07;;;;;;;25.51;62.07;101272.75;4999853;28;20050;-60
2023/09/16 00:20:14;;;;;;;8.82;6.20;;;;;;;25.51;61.89;101275.44;5002513;28;20053;-61
2023/09/16 00:22:43;;;;;;;6.35;5.60;;;;;;;25.52;62.10;101279.00;5006271;28;20054;-61
2023/09/16 00:25:11;;;;;;;6.22;5.63;;;;;;;25.52;62.08;101288.00;4998729;28;20049;-61
2023/09/16 00:27:41;;;;;;;8.15;5.88;;;;;;;25.52;61.98;101287.13;5004718;28;20055;-61
2023/09/16 00:30:09;;;;;;;7.00;5.93;;;;;;;25.52;61.79;101282.59;5007591;28;20053;-61
2023/09/16 00:32:37;;;;;;;6.05;5.40;;;;;;;25.52;61.89;101289.84;5008734;28;20046;-61
2023/09/16 00:35:05;;;;;;;6.68;6.05;;;;;;;25.52;61.79;101288.00;5004137;28;20062;-61
2023/09/16 00:37:32;;;;;;;7.55;6.13;;;;;;;25.52;61.71;101289.84;5006435;28;20054;-61
2023/09/16 00:40:00;;;;;;;5.97;5.47;;;;;;;25.52;61.62;101288.00;5009210;28;20045;-61
2023/09/16 00:42:27;;;;;;;6.85;6.07;;;;;;;25.53;61.75;101288.84;5006695;28;20522;-61
2023/09/16 00:44:54;;;;;;;7.82;6.13;;;;;;;25.53;61.55;101291.56;5005518;28;20050;-61
2023/09/16 00:47:22;;;;;;;6.10;5.40;;;;;;;25.52;61.64;101277.16;5001809;28;20046;-60
2023/09/16 00:49:49;;;;;;;6.85;5.68;;;;;;;25.52;61.46;101274.47;5003580;28;20051;-61
2023/09/16 00:52:17;;;;;;;6.80;6.15;;;;;;;25.52;61.73;101279.88;5004262;28;20053;-61
2023/09/16 00:54:44;;;;;;;6.18;5.55;;;;;;;25.52;61.47;101269.03;5005133;28;20631;-60
2023/09/16 00:57:14;;;;;;;6.57;5.88;;;;;;;25.53;61.39;101275.31;5006009;28;20054;-61
2023/09/16 00:59:42;;;;;;;7.07;5.95;;;;;;;25.53;61.46;101269.88;5007493;28;20050;-61
2023/09/16 01:02:09;;;;;;;6.28;5.65;;;;;;;25.53;61.28;101273.44;5008007;28;20049;-61
2023/09/16 01:04:40;;;;;;;7.03;5.68;;;;;;;25.52;61.24;101269.03;5004839;28;20042;-61
2023/09/16 01:07:07;;;;;;;6.40;5.80;;;;;;;25.53;61.20;101267.19;5006648;28;20054;-61
2023/09/16 01:09:36;;;;;;;6.32;5.72;;;;;;;25.52;61.19;101269.03;5008653;28;20400;-60
2023/09/16 01:12:04;;;;;;;6.30;5.72;;;;;;;25.53;61.24;101269.88;5007134;28;20049;-60
2023/09/16 01:14:33;;;;;;;5.85;5.25;;;;;;;25.52;61.36;101265.44;5003014;28;20070;-60
2023/09/16 01:17:11;;;;;;;7.05;5.82;;;;;;;25.53;61.20;101276.16;5006768;28;20053;-59
2023/09/16 01:19:58;;;;;;;7.82;5.55;;;;;;;25.54;61.05;101272.41;5010092;28;20054;-60
2023/09/16 01:22:26;;;;;;;9.98;6.10;;;;;;;25.55;61.06;101271.41;5010674;28;20527;-60
2023/09/16 01:24:55;;;;;;;6.72;6.03;;;;;;;25.56;60.90;101273.13;5007049;28;20053;-60
2023/09/16 01:27:22;;;;;;;6.13;5.45;;;;;;;25.56;60.95;101264.13;5006368;28;20061;-60
2023/09/16 01:29:50;;;;;;;6.88;5.57;;;;;;;25.57;61.09;101271.25;5005385;28;20492;-59
2023/09/16 01:32:25;;;;;;;6.68;6.07;;;;;;;25.56;61.05;101264.13;5001266;28;20039;-59
2023/09/16 01:34:54;;;;;;;7.45;5.90;;;;;;;25.56;60.98;101258.69;5007986;28;20041;-59
2023/09/16 01:37:24;;;;;;;7.28;5.88;;;;;;;25.56;60.90;101265.00;5006073;28;20050;-59
2023/09/16 01:39:56;;;;;;;6.88;6.22;;;;;;;25.55;60.88;101254.28;5004240;28;20050;-60
2023/09/16 01:42:27;;;;;;;6.90;6.20;;;;;;;25.55;60.91;101255.13;5005282;28;20053;-60
2023/09/16 01:44:54;;;;;;;6.70;5.82;;;;;;;25.54;60.76;101264.28;5006623;28;20500;-60
2023/09/16 01:47:22;;;;;;;6.38;5.57;;;;;;;25.55;60.81;101257.00;5002845;28;20049;-60
2023/09/16 01:49:49;;;;;;;6.75;6.05;;;;;;;25.55;60.87;101257.84;5001028;28;20061;-60
2023/09/16 01:52:17;;;;;;;7.50;5.82;;;;;;;25.54;61.05;101267.00;5001608;28;20039;-60
2023/09/16 01:54:44;;;;;;;7.28;6.50;;;;;;;25.55;60.94;101268.69;5006472;28;20057;-60
2023/09/16 01:57:12;;;;;;;6.28;5.68;;;;;;;25.54;60.87;101272.41;5006953;28;20058;-60
2023/09/16 01:59:39;;;;;;;6.43;5.72;;;;;;;25.54;60.77;101275.13;5002730;28;20054;-59
2023/09/16 02:02:06;;;;;;;6.85;6.15;;;;;;;25.54;60.85;101274.28;5003439;28;20058;-59
2023/09/16 02:04:34;;;;;;;6.45;5.82;;;;;;;25.55;60.68;101274.13;5007772;28;20052;-59
2023/09/16 02:07:04;;;;;;;6.35;5.75;;;;;;;25.54;60.89;101268.88;5004830;28;20504;-59
2023/09/16 02:09:32;;;;;;;6.55;5.95;;;;;;;25.53;60.75;101270.72;5002410;28;20059;-60
2023/09/16 02:12:00;;;;;;;8.23;6.28;;;;;;;25.53;60.88;101281.56;5003738;28;20393;-60
2023/09/16 02:14:27;;;;;;;6.47;5.88;;;;;;;25.54;60.66;101291.41;5005888;28;20104;-60
2023/09/16 02:16:55;;;;;;;6.25;5.53;;;;;;;25.54;60.65;101282.41;5001480;28;20049;-60
2023/09/16 02:19:23;;;;;;;6.18;5.57;;;;;;;25.54;60.60;101294.09;4998705;28;20054;-59
2023/09/16 02:21:51;;;;;;;6.65;5.57;;;;;;;25.54;60.67;101298.69;5000247;28;20073;-59
2023/09/16 02:24:18;;;;;;;6.22;5.63;;;;;;;25.54;60.46;101290.56;5004590;28;20045;-59
2023/09/16 02:26:46;;;;;;;6.97;5.90;;;;;;;25.53;60.58;101292.41;5016930;28;20066;-59
2023/09/16 02:29:13;;;;;;;6.32;5.72;;;;;;;25.54;60.70;101295.97;5001970;28;20046;-59
2023/09/16 02:31:40;;;;;;;6.32;5.65;;;;;;;25.54;60.54;101285.13;5004983;28;20042;-59
2023/09/16 02:34:09;;;;;;;6.03;5.43;;;;;;;25.55;60.48;101300.38;5007220;28;20050;-59
2023/09/16 02:36:37;;;;;;;6.38;5.78;;;;;;;25.54;60.53;101304.94;5004019;28;20508;-59
2023/09/16 02:39:05;;;;;;;6.93;6.05;;;;;;;25.54;60.41;101298.69;5001935;28;20408;-60
2023/09/16 02:41:34;;;;;;;6.80;6.00;;;;;;;25.53;60.49;101297.84;5004048;28;20061;-60
2023/09/16 02:44:02;;;;;;;6.65;5.95;;;;;;;25.54;60.52;101301.41;5005558;28;20527;-60
2023/09/16 02:46:29;;;;;;;6.20;5.53;;;;;;;25.53;60.45;101284.28;5002403;28;20408;-60
2023/09/16 02:48:57;;;;;;;6.35;5.68;;;;;;;25.53;60.39;101281.56;5008561;28;20049;-60
2023/09/16 02:51:25;;;;;;;5.97;5.28;;;;;;;25.54;60.37;101277.00;5003719;28;20049;-60
2023/09/16 02:53:55;;;;;;;6.30;5.70;;;;;;;25.53;60.26;101280.72;5006680;28;20046;-59
2023/09/16 02:56:23;;;;;;;6.57;5.60;;;;;;;25.53;60.32;101272.59;5015962;28;20045;-60
2023/09/16 02:58:52;;;;;;;5.68;5.18;;;;;;;25.53;60.18;101265.31;5001551;28;20050;-60
2023/09/16 03:01:19;;;;;;;5.93;5.32;;;;;;;25.54;60.12;101266.16;5004256;28;20053;-60
2023/09/16 03:03:47;;;;;;;6.10;5.50;;;;;;;25.53;60.28;101269.88;5006509;28;20038;-60
2023/09/16 03:06:15;;;;;;;6.00;5.40;;;;;;;25.53;60.43;101264.47;5002452;28;20385;-60
2023/09/16 03:08:42;;;;;;;7.28;5.75;;;;;;;25.52;60.09;101258.19;5003173;28;20050;-60
2023/09/16 03:11:11;;;;;;;5.80;5.20;;;;;;;25.53;60.14;101262.59;5004680;28;20434;-60
2023/09/16 03:13:38;;;;;;;6.50;5.90;;;;;;;25.53;59.98;101269.88;5015479;28;20072;-60
2023/09/16 03:16:12;;;;;;;6.45;5.85;;;;;;;25.53;60.00;101270.72;5002444;28;20065;-60
2023/09/16 03:18:45;;;;;;;6.40;5.70;;;;;;;25.52;60.01;101269.03;4997791;28;20456;-60
2023/09/16 03:21:14;;;;;;;6.30;5.70;;;;;;;25.52;59.94;101271.75;4999118;28;20501;-60
2023/09/16 03:23:44;;;;;;;6.70;6.10;;;;;;;25.53;59.99;101264.47;5017044;28;20049;-60
2023/09/16 03:26:13;;;;;;;5.78;5.18;;;;;;;25.52;60.01;101270.88;5000724;28;20046;-60
2023/09/16 03:28:46;;;;;;;6.68;5.97;;;;;;;25.52;59.88;101274.47;5003216;28;20046;-60
2023/09/16 03:31:15;;;;;;;6.78;5.75;;;;;;;25.52;60.04;101262.75;5004912;28;20056;-60
2023/09/16 03:33:43;;;;;;;6.15;5.53;;;;;;;25.52;59.87;101266.31;5004326;28;20034;-60
2023/09/16 03:36:10;;;;;;;6.25;5.65;;;;;;;25.53;59.92;101267.19;5000860;28;20050;-60
2023/09/16 03:38:49;;;;;;;5.93;5.30;;;;;;;25.51;59.86;101264.59;5003578;28;20061;-60
2023/09/16 03:41:17;;;;;;;6.38;4.70;;;;;;;25.51;59.79;101256.47;5017050;28;20077;-60
2023/09/16 03:43:52;;;;;;;5.88;5.28;;;;;;;25.52;59.80;101257.31;4992591;28;20057;-60
2023/09/16 03:46:23;;;;;;;5.30;4.75;;;;;;;25.52;59.87;101263.63;5000876;28;20532;-60
2023/09/16 03:48:53;;;;;;;6.05;5.45;;;;;;;25.52;59.80;101260.91;4999809;28;20054;-59
2023/09/16 03:51:23;;;;;;;6.20;5.60;;;;;;;25.52;59.91;101263.63;5000027;28;20058;-59
2023/09/16 03:53:52;;;;;;;6.10;5.50;;;;;;;25.52;59.85;101268.16;5004739;28;20057;-61
2023/09/16 03:56:19;;;;;;;5.82;5.07;;;;;;;25.52;59.84;101268.16;5008385;28;20042;-61
2023/09/16 03:58:46;;;;;;;5.78;4.90;;;;;;;25.51;59.71;101269.19;5010158;28;20054;-61
2023/09/16 04:01:18;;;;;;;6.67;5.60;;;;;;;25.50;59.47;101273.75;5006842;28;20062;-61
2023/09/16 04:03:46;;;;;;;7.00;5.65;;;;;;;25.48;59.48;101270.38;5010736;28;20047;-62
2023/09/16 04:06:14;;;;;;;5.53;4.97;;;;;;;25.48;59.39;101269.50;5007390;28;20069;-61
2023/09/16 04:08:42;;;;;;;6.82;5.10;;;;;;;25.44;59.44;101266.25;5009683;28;20049;-60
2023/09/16 04:11:09;;;;;;;5.72;5.13;;;;;;;25.42;59.55;101279.13;5018654;28;20064;-61
2023/09/16 04:13:37;;;;;;;6.75;6.05;;;;;;;25.42;59.15;101278.28;5005679;28;20034;-60
2023/09/16 04:16:05;;;;;;;6.30;5.68;;;;;;;25.40;59.45;101290.16;5005705;28;20083;-61
2023/09/16 04:18:34;;;;;;;5.82;5.25;;;;;;;25.40;59.30;101287.44;5002247;28;20061;-62
2023/09/16 04:21:02;;;;;;;6.22;5.63;;;;;;;25.38;59.31;101289.44;5017937;28;20073;-61
2023/09/16 04:23:30;;;;;;;7.00;6.32;;;;;;;25.35;59.11;101281.63;5001261;28;20480;-61
2023/09/16 04:26:04;;;;;;;7.18;6.20;;;;;;;25.36;59.14;101285.19;5002095;28;20061;-61
2023/09/16 04:28:31;;;;;;;7.65;6.53;;;;;;;25.35;59.06;101286.19;5009539;28;20053;-60
2023/09/16 04:30:59;;;;;;;6.07;5.28;;;;;;;25.34;59.14;101281.81;5011751;28;20492;-60
2023/09/16 04:33:33;;;;;;;7.78;6.13;;;;;;;25.32;58.75;101289.22;5005188;28;20050;-60
2023/09/16 04:36:03;;;;;;;7.30;6.43;;;;;;;25.31;59.08;101284.81;5007511;28;20054;-60
2023/09/16 04:38:32;;;;;;;7.68;6.88;;;;;;;25.29;58.82;101278.72;5006775;28;20080;-60
2023/09/16 04:41:00;;;;;;;7.93;7.10;;;;;;;25.29;59.13;101281.44;5003877;28;20546;-60
2023/09/16 04:43:28;;;;;;;7.68;6.90;;;;;;;25.29;59.07;101270.59;5005667;28;20058;-60
2023/09/16 04:45:55;;;;;;;7.53;6.75;;;;;;;25.27;58.77;101284.28;5007482;28;20126;-61
2023/09/16 04:48:43;;;;;;;8.20;6.63;;;;;;;25.27;59.02;101286.16;5000857;28;20058;-61
2023/09/16 04:51:10;;;;;;;7.38;6.68;;;;;;;25.28;59.11;101277.88;5004556;28;20061;-60
2023/09/16 04:53:38;;;;;;;6.50;5.78;;;;;;;25.28;58.85;101277.00;5007391;28;20507;-61
2023/09/16 04:56:05;;;;;;;7.43;6.72;;;;;;;25.26;58.89;101271.75;5003562;28;20054;-61
2023/09/16 04:58:36;;;;;;;6.60;5.93;;;;;;;25.28;58.85;101271.59;5003779;28;20054;-61
2023/09/16 05:01:07;;;;;;;7.30;6.32;;;;;;;25.26;58.80;101268.22;5004784;28;20055;-61
2023/09/16 05:03:35;;;;;;;7.90;6.97;;;;;;;25.25;58.75;101270.06;5003209;28;20053;-61
2023/09/16 05:06:03;;;;;;;7.05;6.35;;;;;;;25.24;58.79;101271.09;5007506;28;20050;-62
2023/09/16 05:08:35;;;;;;;7.93;5.78;;;;;;;25.23;58.70;101277.50;5005146;28;20042;-60
2023/09/16 05:11:04;;;;;;;7.57;6.80;;;;;;;25.22;58.83;101274.97;5006170;28;20493;-61
2023/09/16 05:13:52;;;;;;;9.02;6.88;;;;;;;25.21;58.88;101276.81;5008887;28;20504;-61
2023/09/16 05:16:20;;;;;;;7.45;6.75;;;;;;;25.20;58.77;101276.97;4999964;28;20054;-60
2023/09/16 05:18:48;;;;;;;7.85;6.78;;;;;;;25.20;58.81;101280.53;4999996;28;20161;-61
2023/09/16 05:21:16;;;;;;;7.68;6.40;;;;;;;25.21;59.17;101281.41;5001986;28;20065;-62
2023/09/16 05:23:43;;;;;;;6.70;6.10;;;;;;;25.21;59.24;101282.25;5007690;28;20038;-61
2023/09/16 05:26:14;;;;;;;6.47;5.88;;;;;;;25.21;59.33;101275.97;4987592;28;20061;-61
2023/09/16 05:28:42;;;;;;;6.68;6.00;;;;;;;25.22;59.30;101280.38;5005220;28;20058;-60
2023/09/16 05:31:10;;;;;;;6.65;6.03;;;;;;;25.21;59.44;101276.81;5006865;28;20049;-61
2023/09/16 05:33:40;;;;;;;6.07;5.47;;;;;;;25.21;59.38;101276.81;5004895;28;20054;-60
2023/09/16 05:36:08;;;;;;;9.05;6.07;;;;;;;25.22;59.40;101283.94;5003365;28;20543;-60
2023/09/16 05:38:36;;;;;;;6.82;6.22;;;;;;;25.22;59.28;101289.34;5005417;28;20081;-60
2023/09/16 05:41:03;;;;;;;6.63;6.00;;;;;;;25.23;59.51;101284.78;5006672;28;20046;-60
2023/09/16 05:43:30;;;;;;;6.68;5.97;;;;;;;25.22;59.16;101293.91;5004685;28;20045;-60
2023/09/16 05:45:58;;;;;;;7.72;6.43;;;;;;;25.23;59.34;101306.44;5002888;28;20504;-60
2023/09/16 05:48:27;;;;;;;6.30;5.68;;;;;;;25.23;59.45;101292.91;5005193;28;20061;-61
2023/09/16 05:50:58;;;;;;;5.50;4.90;;;;;;;25.22;59.36;101289.34;5006234;28;20046;-61
2023/09/16 05:53:31;;;;;;;6.82;6.13;;;;;;;25.22;59.28;101283.94;5003896;28;20523;-61
2023/09/16 05:56:08;;;;;;;7.28;6.30;;;;;;;25.22;59.18;101283.94;5002862;28;20054;-61
2023/09/16 05:58:41;;;;;;;6.32;5.72;;;;;;;25.22;59.08;101283.09;5006085;28;20057;-61
2023/09/16 06:01:08;;;;;;;7.75;7.03;;;;;;;25.22;59.30;101285.78;5004973;28;20050;-61
2023/09/16 06:03:36;;;;;;;6.63;5.93;;;;;;;25.22;59.22;101283.09;5003990;28;20050;-61
2023/09/16 06:06:04;;;;;;;7.32;6.63;;;;;;;25.21;59.34;101281.41;5005472;28;20038;-62
2023/09/16 06:08:32;;;;;;;7.82;6.43;;;;;;;25.21;59.47;101284.09;5006170;28;20072;-61
2023/09/16 06:11:00;;;;;;;8.38;6.45;;;;;;;25.21;59.61;101292.22;5004646;28;20046;-61
2023/09/16 06:13:27;;;;;;;7.05;6.35;;;;;;;25.19;59.46;101289.66;5001968;28;20054;-62
2023/09/16 06:15:55;;;;;;;8.02;7.20;;;;;;;25.19;59.65;101291.53;5004904;28;20051;-61
2023/09/16 06:18:25;;;;;;;7.63;6.82;;;;;;;25.17;59.63;101294.41;5005696;28;20049;-61
2023/09/16 06:20:52;;;;;;;7.00;6.30;;;;;;;25.17;59.85;101290.84;5016921;28;20057;-62
2023/09/16 06:23:20;;;;;;;7.93;7.18;;;;;;;25.17;59.81;101286.28;5002249;28;20058;-62
2023/09/16 06:25:49;;;;;;;7.13;6.43;;;;;;;25.16;60.00;101290.00;5004753;28;20055;-62
2023/09/16 06:28:17;;;;;;;6.45;5.80;;;;;;;25.15;59.88;101289.13;5005774;28;20050;-61
2023/09/16 06:30:44;;;;;;;7.30;6.60;;;;;;;25.17;60.03;101293.56;5003471;28;20126;-62
2023/09/16 06:33:13;;;;;;;9.38;6.40;;;;;;;25.15;60.20;101294.53;5001749;28;20159;-61
2023/09/16 06:35:41;;;;;;;6.38;5.78;;;;;;;25.17;60.27;101296.28;5004416;28;20045;-61
2023/09/16 06:38:08;;;;;;;6.85;6.18;;;;;;;25.15;60.18;101291.84;5006838;28;20054;-62
2023/09/16 06:40:38;;;;;;;6.68;5.95;;;;;;;25.17;60.29;101293.56;5004307;28;20492;-62
2023/09/16 06:43:06;;;;;;;7.70;6.88;;;;;;;25.16;60.34;101292.72;5002075;28;20058;-59
2023/09/16 06:45:38;;;;;;;10.73;6.60;;;;;;;25.15;60.43;101302.66;4996097;28;20046;-58
2023/09/16 06:48:06;;;;;;;6.63;5.93;;;;;;;25.12;60.54;101300.31;5003150;28;20058;-58
2023/09/16 06:50:33;;;;;;;8.77;6.90;;;;;;;25.12;60.30;101300.31;5000307;28;20042;-58
2023/09/16 06:53:01;;;;;;;7.72;6.40;;;;;;;25.10;60.20;101302.31;4999778;28;20057;-58
2023/09/16 06:55:28;;;;;;;7.70;6.38;;;;;;;25.10;60.14;101296.03;5000111;28;20400;-58
2023/09/16 06:57:55;;;;;;;8.77;7.13;;;;;;;25.08;59.91;101289.91;5006390;28;20046;-58
2023/09/16 07:00:40;;;;;;;9.05;7.03;;;;;;;25.06;60.01;101291.91;4994337;28;20054;-57
2023/09/16 07:03:07;;;;;;;7.38;6.65;;;;;;;25.05;60.14;101291.06;5004957;28;20038;-57
2023/09/16 07:05:35;;;;;;;7.20;6.05;;;;;;;25.04;60.19;101302.94;5006530;28;20874;-57
2023/09/16 07:08:04;;;;;;;8.70;7.10;;;;;;;25.04;60.36;101302.06;5001776;28;20480;-58
2023/09/16 07:10:31;;;;;;;7.78;6.40;;;;;;;25.02;60.47;101304.06;5007716;28;20053;-57
2023/09/16 07:12:59;;;;;;;8.82;7.43;;;;;;;24.98;60.61;101311.66;5011885;28;20515;-57
2023/09/16 07:15:26;;;;;;;9.82;8.35;;;;;;;24.90;60.71;101312.44;5005797;28;20400;-56
2023/09/16 07:17:54;;;;;;;8.10;7.30;;;;;;;24.82;60.90;101315.09;4986251;28;20046;-58
2023/09/16 07:20:22;;;;;;;8.38;6.80;;;;;;;24.72;61.06;101317.03;5000779;28;20042;-57
2023/09/16 07:22:52;;;;;;;7.82;7.03;;;;;;;24.66;61.25;101320.38;5008660;28;20057;-57
2023/09/16 07:25:20;;;;;;;7.68;6.90;;;;;;;24.65;61.73;101319.50;5000538;28;20420;-57
2023/09/16 07:27:47;;;;;;;7.45;6.75;;;;;;;24.64;61.84;101322.38;5008494;28;20061;-57
2023/09/16 07:30:15;;;;;;;9.15;7.40;;;;;;;24.62;61.85;101330.66;5008243;28;20045;-58
2023/09/16 07:32:42;;;;;;;8.80;7.90;;;;;;;24.61;62.00;101334.38;5006707;28;20057;-58
2023/09/16 07:35:10;;;;;;;9.73;8.00;;;;;;;24.60;61.70;101335.38;5005103;28;20049;-56
2023/09/16 07:37:37;;;;;;;8.23;7.20;;;;;;;24.58;61.90;101336.53;5006888;28;20054;-56
2023/09/16 07:40:05;;;;;;;14.23;8.45;;;;;;;24.60;61.87;101337.25;5008202;28;20057;-55
2023/09/16 07:42:35;;;;;;;9.52;7.45;;;;;;;24.62;62.06;101338.78;5008140;28;20511;-54
2023/09/16 07:45:06;;;;;;;8.68;7.22;;;;;;;24.64;62.15;101335.94;5000316;28;20042;-57
2023/09/16 07:47:33;;;;;;;9.10;6.75;;;;;;;24.65;62.19;101332.22;5006568;28;20056;-59
2023/09/16 07:50:01;;;;;;;9.23;7.85;;;;;;;24.65;62.28;101335.75;5008599;28;20053;-57
2023/09/16 07:52:32;;;;;;;8.52;6.88;;;;;;;24.66;62.42;101340.16;5008307;28;20056;-57
2023/09/16 07:54:59;;;;;;;11.38;7.38;;;;;;;24.69;62.24;101349.84;5003622;28;20475;-61
2023/09/16 07:57:30;;;;;;;9.95;6.70;;;;;;;24.69;62.30;101341.72;5009985;28;20057;-61
2023/09/16 07:59:58;;;;;;;8.52;7.18;;;;;;;24.73;62.33;101342.25;5008504;28;20053;-63
2023/09/16 08:02:25;;;;;;;8.70;6.88;;;;;;;24.77;61.91;101349.91;5006226;28;20412;-62
2023/09/16 08:04:53;;;;;;;7.35;6.50;;;;;;;24.81;62.03;101351.31;5003581;28;20057;-63
2023/09/16 08:07:21;;;;;;;9.20;6.95;;;;;;;24.87;61.73;101352.53;5002750;28;20539;-62
2023/09/16 08:09:48;;;;;;;6.88;5.75;;;;;;;24.91;61.64;101348.50;5008091;28;20057;-63
2023/09/16 08:12:19;;;;;;;7.72;5.72;;;;;;;24.97;61.56;101353.31;5006325;28;20053;-63
2023/09/16 08:14:47;;;;;;;8.85;6.70;;;;;;;24.99;61.36;101348.56;5005175;28;20046;-63
2023/09/16 08:17:14;;;;;;;7.10;6.07;;;;;;;25.01;61.50;101351.16;5002499;28;20050;-63
2023/09/16 08:19:42;;;;;;;6.53;4.90;;;;;;;25.02;61.57;101348.28;4994412;28;20500;-62
2023/09/16 08:22:09;;;;;;;7.53;5.82;;;;;;;25.03;61.22;101349.97;5006099;28;20511;-62
2023/09/16 08:24:37;;;;;;;5.90;4.88;;;;;;;25.04;61.23;101357.09;5004167;28;20070;-62
2023/09/16 08:27:04;;;;;;;7.95;5.18;;;;;;;25.07;61.18;101367.59;5007399;28;20488;-62
2023/09/16 08:29:32;;;;;;;6.93;6.00;;;;;;;25.07;61.08;101381.16;5007763;28;20053;-63
2023/09/16 08:31:59;;;;;;;8.85;5.90;;;;;;;25.09;61.02;101383.75;5005682;28;20500;-63
2023/09/16 08:34:26;;;;;;;6.40;5.20;;;;;;;25.09;61.19;101387.31;5003001;28;20050;-63
2023/09/16 08:36:54;;;;;;;6.32;5.25;;;;;;;25.10;61.13;101389.00;5007696;28;20046;-63
2023/09/16 08:39:22;;;;;;;7.05;6.07;;;;;;;25.11;61.32;101396.13;5010947;28;20049;-63
2023/09/16 08:42:01;;;;;;;7.93;5.60;;;;;;;25.12;60.85;101400.56;5009078;28;20057;-63
2023/09/16 08:44:33;;;;;;;7.68;5.30;;;;;;;25.12;60.94;101392.41;5008282;28;20050;-62
2023/09/16 08:47:08;;;;;;;7.07;5.22;;;;;;;25.12;60.77;101387.00;5011136;28;20055;-62
2023/09/16 08:49:43;;;;;;;6.85;6.10;;;;;;;25.14;60.97;101378.72;5003994;28;20062;-62
2023/09/16 08:52:16;;;;;;;5.75;5.15;;;;;;;25.14;60.91;101371.44;5010251;28;20054;-63
2023/09/16 08:54:47;;;;;;;7.03;6.25;;;;;;;25.14;60.65;101363.28;5011128;28;20050;-63
2023/09/16 08:57:14;;;;;;;6.13;5.47;;;;;;;25.15;60.65;101367.69;5010474;28;20496;-63
2023/09/16 08:59:42;;;;;;;6.25;5.00;;;;;;;25.15;60.74;101367.69;5010309;28;20085;-63
2023/09/16 09:02:10;;;;;;;6.32;5.72;;;;;;;25.17;60.71;101361.28;5008628;28;20046;-63
2023/09/16 09:04:39;;;;;;;5.53;5.00;;;;;;;25.17;60.79;101366.72;5010296;28;20045;-63
2023/09/16 09:07:08;;;;;;;6.07;5.43;;;;;;;25.17;60.93;101370.28;5010107;28;20046;-63
2023/09/16 09:09:36;;;;;;;8.32;5.20;;;;;;;25.17;61.04;101372.97;5001756;28;20397;-63
2023/09/16 09:12:04;;;;;;;7.07;6.38;;;;;;;25.19;60.80;101372.81;5008692;28;20424;-62
2023/09/16 09:14:34;;;;;;;9.10;5.95;;;;;;;25.17;60.72;101362.16;5010095;28;20041;-63
2023/09/16 09:17:03;;;;;;;7.13;5.38;;;;;;;25.18;61.00;101357.56;5010038;28;20513;-63
2023/09/16 09:19:31;;;;;;;6.28;5.10;;;;;;;25.18;60.70;101352.16;4984693;28;20046;-62
2023/09/16 09:21:59;;;;;;;6.35;5.75;;;;;;;25.19;60.69;101354.69;4989906;28;20042;-62
2023/09/16 09:24:27;;;;;;;7.38;5.70;;;;;;;25.19;60.83;101346.56;5001054;28;20046;-62
2023/09/16 09:26:55;;;;;;;6.07;5.47;;;;;;;25.20;60.72;101352.81;5001465;28;20049;-62
2023/09/16 09:29:22;;;;;;;5.30;4.80;;;;;;;25.19;60.70;101348.44;5004330;28;20053;-63
2023/09/16 09:31:53;;;;;;;6.18;5.05;;;;;;;25.19;60.71;101359.25;5001091;28;20400;-63
2023/09/16 09:34:21;;;;;;;6.43;5.07;;;;;;;25.20;60.86;101371.78;5001369;28;20050;-63
2023/09/16 09:36:48;;;;;;;7.00;5.20;;;;;;;25.20;60.45;101371.78;5001316;28;20061;-63
2023/09/16 09:39:16;;;;;;;5.45;4.95;;;;;;;25.20;60.45;101374.50;5003346;28;20046;-63
2023/09/16 09:41:51;;;;;;;7.78;5.93;;;;;;;25.22;60.53;101377.94;5000419;28;20515;-63
2023/09/16 09:44:19;;;;;;;6.95;5.82;;;;;;;25.21;60.74;101370.81;5000540;28;20050;-63
2023/09/16 09:46:46;;;;;;;6.85;5.20;;;;;;;25.21;60.41;101370.81;5002747;28;20038;-63
2023/09/16 09:49:15;;;;;;;6.57;5.88;;;;;;;25.22;60.70;101380.63;4999755;28;20049;-62
2023/09/16 09:51:47;;;;;;;5.68;5.18;;;;;;;25.21;60.56;101389.78;5000218;28;20046;-62
2023/09/16 09:54:16;;;;;;;6.05;5.43;;;;;;;25.22;60.74;101384.19;5000445;28;20128;-62
2023/09/16 09:56:45;;;;;;;7.25;5.40;;;;;;;25.22;60.74;101386.91;5003078;28;20511;-62
2023/09/16 09:59:15;;;;;;;7.40;5.70;;;;;;;25.22;60.68;101384.19;5001599;28;20480;-62
2023/09/16 10:01:42;;;;;;;5.28;4.78;;;;;;;25.22;60.65;101380.63;5000226;28;20061;-62
2023/09/16 10:04:10;;;;;;;6.97;5.45;;;;;;;25.22;60.74;101378.78;5000050;28;20500;-62
2023/09/16 10:06:38;;;;;;;7.90;5.57;;;;;;;25.23;60.62;101377.75;5003491;28;20053;-62
2023/09/16 10:09:06;;;;;;;6.43;5.10;;;;;;;25.23;60.64;101383.16;5001510;28;20041;-63
2023/09/16 10:11:33;;;;;;;5.72;5.10;;;;;;;25.25;60.87;101385.75;4999657;28;20046;-63
2023/09/16 10:14:01;;;;;;;6.68;5.20;;;;;;;25.24;60.60;101389.44;4999638;28;20357;-63
2023/09/16 10:16:29;;;;;;;7.07;4.95;;;;;;;25.24;60.67;101389.44;4993678;28;20050;-63
2023/09/16 10:18:57;;;;;;;5.57;4.97;;;;;;;25.24;60.73;101384.03;4998258;28;20049;-63
2023/09/16 10:21:25;;;;;;;7.28;5.22;;;;;;;25.23;60.76;101383.16;4975241;28;20401;-63
2023/09/16 10:23:52;;;;;;;6.47;5.35;;;;;;;25.24;60.77;101378.59;4996228;28;20500;-63
2023/09/16 10:26:20;;;;;;;6.13;5.53;;;;;;;25.24;60.61;101376.78;4994224;28;20041;-63
2023/09/16 10:28:52;;;;;;;6.65;5.45;;;;;;;25.25;60.40;101372.19;5000424;28;20042;-62
2023/09/16 10:31:20;;;;;;;6.20;5.60;;;;;;;25.24;60.59;101376.78;4999784;28;20050;-62
2023/09/16 10:33:49;;;;;;;5.82;5.22;;;;;;;25.26;60.39;101376.59;4999901;28;20519;-62
2023/09/16 10:36:17;;;;;;;6.10;5.40;;;;;;;25.25;60.71;101367.63;5002615;28;20385;-62
2023/09/16 10:38:46;;;;;;;7.93;6.03;;;;;;;25.26;60.59;101366.59;4999675;28;20057;-63
2023/09/16 10:41:16;;;;;;;7.45;5.68;;;;;;;25.26;60.46;101363.06;4999479;28;20050;-63
2023/09/16 10:43:45;;;;;;;6.15;5.47;;;;;;;25.28;60.54;101367.31;5000501;28;20046;-63
2023/09/16 10:46:13;;;;;;;7.22;5.43;;;;;;;25.26;60.54;101372.03;5002380;28;20050;-63
2023/09/16 10:48:42;;;;;;;6.25;5.65;;;;;;;25.26;60.41;101371.19;4989496;28;20054;-63
2023/09/16 10:51:19;;;;;;;6.00;5.25;;;;;;;25.28;60.48;101370.03;4999265;28;20050;-63
2023/09/16 10:53:52;;;;;;;6.72;5.55;;;;;;;25.28;60.50;101358.31;5002218;28;20054;-63
2023/09/16 10:56:28;;;;;;;6.65;5.65;;;;;;;25.28;60.52;101361.00;5012096;28;20058;-63
2023/09/16 10:59:07;;;;;;;6.20;5.60;;;;;;;25.28;60.58;101361.91;5012849;28;20045;-62
2023/09/16 11:01:47;;;;;;;5.72;4.85;;;;;;;25.29;60.44;101360.03;5013047;28;20538;-62
2023/09/16 11:04:16;;;;;;;6.40;5.50;;;;;;;25.29;60.56;101360.88;5012458;28;20058;-62
2023/09/16 11:06:50;;;;;;;6.55;5.65;;;;;;;25.29;60.39;101360.88;5012559;28;20492;-62
2023/09/16 11:09:19;;;;;;;5.80;5.20;;;;;;;25.30;60.60;101356.31;5013060;28;20053;-62
2023/09/16 11:11:48;;;;;;;5.78;5.20;;;;;;;25.30;60.46;101354.44;5012125;28;20046;-62
2023/09/16 11:14:19;;;;;;;6.00;5.40;;;;;;;25.30;60.56;101353.59;5012600;28;20045;-62
2023/09/16 11:16:51;;;;;;;6.20;4.97;;;;;;;25.30;60.57;101354.44;5012920;28;20049;-62
2023/09/16 11:19:24;;;;;;;6.13;5.20;;;;;;;25.30;60.27;101357.16;5012641;28;20050;-62
2023/09/16 11:21:52;;;;;;;6.93;5.82;;;;;;;25.31;60.83;101352.56;4977857;28;20066;-62
2023/09/16 11:24:20;;;;;;;6.30;5.70;;;;;;;25.31;60.51;101355.28;4997116;28;20046;-62
2023/09/16 11:26:49;;;;;;;5.20;4.70;;;;;;;25.32;60.37;101351.56;5012223;28;20037;-62
2023/09/16 11:29:19;;;;;;;5.28;4.78;;;;;;;25.31;60.48;101342.59;5008377;28;20053;-63
2023/09/16 11:31:46;;;;;;;6.22;5.00;;;;;;;25.32;60.45;101344.31;5011524;28;20517;-63